AirNav   Air Wisconsin pilot careers
 
 1480 users online  

66KY Mc Grew Airport
Clarkson, Kentucky, USA

GOING TO CLARKSON?


FAA INFORMATION EFFECTIVE 13 SEPTEMBER 2018

Location

FAA Identifier: 66KY
Lat/Long: 37-30-27.2010N / 086-12-19.8990W
37-30.453350N / 086-12.331650W
37.5075558 / -86.2055275
(estimated)
Elevation: 720 ft. / 219 m (estimated)
Variation: 01W (1985)
From city: 1 mile NE of CLARKSON, KY
Time zone: UTC -5 (UTC -6 during Standard Time)
Zip code: 42726

Airport Operations

Airport use: Private use. Permission required prior to landing
Activation date: 08/1985
Control tower: no
ARTCC: INDIANAPOLIS CENTER
FSS: LOUISVILLE FLIGHT SERVICE STATION
Attendance: UNATNDD
Wind indicator: yes
Segmented circle: no

Airport Communications

WX AWOS-3 at EKX (17 nm NE): 121.025 (270-763-6433)

Nearby radio navigation aids

VOR radial/distance  VOR name  Freq  Var
MYSr176/(23.3)MYSTIC VOR108.2001W
EWOr253/26.3NEW HOPE VOR/DME110.8001E
FTKr206/26.4FORT KNOX VOR/DME109.6001W
BWGr016/36.5BOWLING GREEN VORTAC117.9002E

 
NDB name  Hdg/Dist  Freq  Var  ID
GODMAN205/29.239603WGOI --. --- ..

Airport Services

Runway Information

Runway 10/28

Dimensions: 2400 x 150 ft. / 732 x 46 m
Surface: turf
RUNWAY 10  RUNWAY 28
Traffic pattern: leftleft
Obstructions: 30 ft. trees30 ft. trees

Airport Ownership and Management from official FAA records

Ownership: Privately-owned
Owner: ROBERT MC GREW
RT 3, BOX 186
CLARKSON, KY 42726
Phone 502-242-7378

Airport Operational Statistics

Aircraft based on the field: 6
Single engine airplanes: 4
Ultralights: 2
    

Instrument Procedures

There are no published instrument procedures at 66KY.

Some nearby airports with instrument procedures:

KEKX - Addington Field Airport (17 nm NE)
KFTK - Godman Army Airfield (26 nm NE)
KJQD - Ohio County Airport (31 nm W)
KGLW - Glasgow Municipal Airport (31 nm SE)
KBWG - Bowling Green-Warren County Regional Airport (34 nm S)
 
Loc | Ops | Rwys | IFR | FBO | Links
Com | Nav | Svcs | Stats | Notes


 
Area around 66KY (Mc Grew Airport)
 
Road maps at: MapQuest Bing Google
 
Aerial photo
No photo
 
Sectional chart

 
Airport distance calculator
Flying to Mc Grew Airport? Find the distance to fly.

From to 66KY

Sunrise and sunset
Times for 21-Sep-2018
 Local
(UTC-5)
 Zulu
(UTC)
Morning civil twilight06:0711:07
Sunrise06:3311:33
Sunset18:4323:43
Evening civil twilight19:0900:09

Current date and time
Zulu (UTC)  21-Sep-2018 15:18:38
Local (UTC-5)  21-Sep-2018 10:18:38
 
METAR
KEKX 
20nm NE 
211455Z AUTO 20011KT 10SM CLR 29/21 A3008 RMK AO2 T02850210
KFTK 
25nm NE 
211456Z AUTO 19007KT 10SM CLR 28/21 A3007 RMK AO2 SLP178 60005 T02760214 50003
KGLW 
31nm SE 
211450Z AUTO 19011G14KT 10SM CLR 28/20 A3011 RMK AO2 T02770199
KBWG 
34nm S 
211453Z AUTO 17012G21KT 10SM CLR 29/21 A3008 RMK AO2 SLP179 T02890211 50001
KBRY 
38nm NE 
211455Z AUTO 20008KT 10SM CLR 25/20 A3008 RMK AO1
TAF
KFTK 
25nm NE 
210900Z 2109/2215 20009KT 9999 FEW050 QNH2999INS TEMPO 2123/2201 27015G25KT 6000 -TSRA BKN035CB BECMG 2200/2201 33009KT 9999 SCT020 BKN150 QNH3002INS BECMG 2206/2207 36009KT 9999 BKN150 QNH3012INS BECMG 2214/2215 05012KT 9999 BKN100 QNH2996INS TX32/2121Z TN17/2209Z
NOTAMs
Click for the latest NOTAMs
NOTAMs are issued by the DoD/FAA and will open in a separate window not controlled by AirNav.

 

 
 

Would you like to see your business listed on this page?

 If your business provides an interesting product or service to pilots, flight crews, aircraft, or users of the Mc Grew Airport, you should consider listing it here.  To start the listing process, click on the button below
 
Add a business
 

Other Pages about Mc Grew Airport

Update a link
 
Copyright © AirNav, LLC. All rights reserved. Privacy Policy  Contact